createdAt,value
2022-09-28T00:00:19.183Z,55.64
2022-09-28T00:02:45.854Z,55.59
2022-09-28T00:05:12.731Z,55.68
2022-09-28T00:07:39.237Z,55.59
2022-09-28T00:10:06.003Z,55.74
2022-09-28T00:12:32.476Z,55.67
2022-09-28T00:14:58.932Z,55.60
2022-09-28T00:17:26.493Z,55.71
2022-09-28T00:19:52.963Z,55.60
2022-09-28T00:24:59.878Z,55.77
2022-09-28T00:27:26.410Z,55.68
2022-09-28T00:29:52.928Z,55.66
2022-09-28T00:32:21.500Z,55.55
2022-09-28T00:34:48.930Z,55.73
2022-09-28T00:37:15.434Z,55.65
2022-09-28T00:39:41.906Z,55.60
2022-09-28T00:42:18.244Z,55.61
2022-09-28T00:44:47.276Z,55.62
2022-09-28T00:47:35.397Z,55.68
2022-09-28T00:50:15.025Z,55.69
2022-09-28T00:52:41.388Z,55.58
2022-09-28T00:55:09.998Z,55.57
2022-09-28T00:57:37.263Z,55.59
2022-09-28T01:00:04.300Z,55.56
2022-09-28T01:02:30.820Z,55.85
2022-09-28T01:04:57.907Z,55.46
2022-09-28T01:07:24.451Z,55.34
2022-09-28T01:09:50.943Z,55.67
2022-09-28T01:12:17.802Z,55.53
2022-09-28T01:14:44.630Z,55.63
2022-09-28T01:17:14.820Z,55.69
2022-09-28T01:19:56.365Z,55.42
2022-09-28T01:22:34.916Z,55.55
2022-09-28T01:25:07.342Z,55.58
2022-09-28T01:27:37.329Z,55.52
2022-09-28T01:30:05.892Z,55.61
2022-09-28T01:32:36.867Z,55.43
2022-09-28T01:35:22.649Z,55.63
2022-09-28T01:37:54.496Z,55.68
2022-09-28T01:40:22.477Z,55.54
2022-09-28T01:42:51.538Z,55.46
2022-09-28T01:45:22.029Z,55.72
2022-09-28T01:47:48.540Z,55.51
2022-09-28T01:50:18.223Z,55.48
2022-09-28T01:52:46.065Z,55.34
2022-09-28T01:55:23.486Z,55.74
2022-09-28T01:58:05.548Z,55.54
2022-09-28T02:00:32.604Z,55.62
2022-09-28T02:03:04.649Z,55.51
2022-09-28T02:05:33.647Z,55.69
2022-09-28T02:08:10.034Z,55.56
2022-09-28T02:11:03.652Z,55.66
2022-09-28T02:13:33.791Z,55.61
2022-09-28T02:16:06.690Z,55.44
2022-09-28T02:18:33.410Z,55.41
2022-09-28T02:21:03.207Z,55.42
2022-09-28T02:23:29.679Z,55.64
2022-09-28T02:26:04.009Z,55.45
2022-09-28T02:28:30.508Z,55.46
2022-09-28T02:30:57.099Z,55.54
2022-09-28T02:33:26.312Z,55.58
2022-09-28T02:35:52.784Z,55.56
2022-09-28T02:38:19.274Z,55.34
2022-09-28T02:41:21.259Z,55.40
2022-09-28T02:44:03.660Z,55.56
2022-09-28T02:46:49.728Z,55.46
2022-09-28T02:49:35.071Z,55.50
2022-09-28T02:52:15.576Z,55.56
2022-09-28T02:55:10.076Z,55.28
2022-09-28T02:57:41.133Z,55.45
2022-09-28T03:00:18.696Z,55.53
2022-09-28T03:03:05.804Z,55.35
2022-09-28T03:05:41.212Z,55.46
2022-09-28T03:08:17.307Z,55.58
2022-09-28T03:10:51.896Z,55.51
2022-09-28T03:13:18.363Z,55.69
2022-09-28T03:15:48.662Z,55.12
2022-09-28T03:18:15.976Z,55.61
2022-09-28T03:20:42.542Z,55.66
2022-09-28T03:23:25.441Z,55.51
2022-09-28T03:25:52.172Z,55.68
2022-09-28T03:28:18.673Z,55.45
2022-09-28T03:30:45.367Z,55.66
2022-09-28T03:33:11.863Z,55.56
2022-09-28T03:35:38.334Z,55.50
2022-09-28T03:38:04.815Z,55.62
2022-09-28T03:40:31.388Z,55.63
2022-09-28T03:42:59.809Z,55.33
2022-09-28T03:45:26.313Z,55.34
2022-09-28T03:47:52.860Z,55.62
2022-09-28T03:50:19.326Z,55.65
2022-09-28T03:52:45.854Z,55.42
2022-09-28T03:55:12.410Z,55.54
2022-09-28T03:57:38.882Z,56.10
2022-09-28T04:00:05.755Z,55.66
2022-09-28T04:02:32.367Z,55.67
2022-09-28T04:04:58.915Z,55.47
2022-09-28T04:07:29.038Z,55.52
2022-09-28T04:09:57.539Z,55.63
2022-09-28T04:12:24.056Z,55.59
2022-09-28T04:14:50.914Z,55.78
2022-09-28T04:17:17.416Z,55.36
2022-09-28T04:19:43.895Z,55.46
2022-09-28T04:22:10.424Z,55.83
2022-09-28T04:24:36.947Z,55.64
2022-09-28T04:27:21.952Z,55.50
2022-09-28T04:29:48.420Z,55.58
2022-09-28T04:32:14.894Z,55.56
2022-09-28T04:34:44.139Z,55.55
2022-09-28T04:37:11.010Z,55.66
2022-09-28T04:39:37.538Z,55.71
2022-09-28T04:42:04.024Z,55.12
2022-09-28T04:44:30.574Z,55.63
2022-09-28T04:46:58.247Z,55.59
2022-09-28T04:49:27.120Z,55.59
2022-09-28T04:51:53.588Z,55.53
2022-09-28T04:54:20.230Z,55.82
2022-09-28T04:56:46.695Z,55.38
2022-09-28T04:59:13.497Z,55.80
2022-09-28T05:01:40.158Z,55.32
2022-09-28T05:04:06.688Z,55.73
2022-09-28T05:06:33.199Z,55.65
2022-09-28T05:08:59.748Z,55.66
2022-09-28T05:11:26.554Z,55.32
2022-09-28T05:13:53.112Z,55.33
2022-09-28T05:16:20.457Z,55.29
2022-09-28T05:18:47.391Z,55.49
2022-09-28T05:21:14.700Z,55.53
2022-09-28T05:23:43.655Z,55.38
2022-09-28T05:26:10.174Z,55.52
2022-09-28T05:28:36.672Z,55.45
2022-09-28T05:31:03.815Z,55.36
2022-09-28T05:33:31.070Z,55.44
2022-09-28T05:36:01.108Z,55.58
2022-09-28T05:38:28.426Z,55.51
2022-09-28T05:40:55.000Z,55.54
2022-09-28T05:43:21.544Z,55.40
2022-09-28T05:45:52.917Z,55.26
2022-09-28T05:48:21.740Z,55.32
2022-09-28T05:50:52.393Z,55.37
2022-09-28T05:53:18.977Z,55.19
2022-09-28T05:55:45.612Z,55.50
2022-09-28T05:58:12.157Z,55.35
2022-09-28T06:00:38.678Z,55.37
2022-09-28T06:03:10.486Z,55.28
2022-09-28T06:05:37.540Z,55.17
2022-09-28T06:08:05.203Z,55.34
2022-09-28T06:10:31.979Z,55.29
2022-09-28T06:12:58.491Z,55.32
2022-09-28T06:15:26.263Z,55.38
2022-09-28T06:18:19.202Z,55.41
2022-09-28T06:20:45.701Z,55.44
2022-09-28T06:23:12.756Z,55.23
2022-09-28T06:25:39.473Z,55.29
2022-09-28T06:28:15.187Z,55.28
2022-09-28T06:30:42.376Z,55.41
2022-09-28T06:33:16.294Z,55.30
2022-09-28T06:35:42.839Z,55.74
2022-09-28T06:38:09.428Z,55.41
2022-09-28T06:40:36.265Z,55.27
2022-09-28T06:43:20.981Z,55.01
2022-09-28T06:45:51.383Z,55.02
2022-09-28T06:48:17.973Z,55.03
2022-09-28T06:50:44.967Z,55.19
2022-09-28T06:53:13.553Z,55.27
2022-09-28T06:55:46.019Z,55.08
2022-09-28T06:58:13.988Z,55.29
2022-09-28T07:00:40.684Z,55.16
2022-09-28T07:03:17.860Z,55.06
2022-09-28T07:05:48.832Z,55.22
2022-09-28T07:08:15.875Z,55.23
2022-09-28T07:10:43.505Z,55.21
2022-09-28T07:13:25.169Z,55.11
2022-09-28T07:15:57.187Z,55.34
2022-09-28T07:18:24.326Z,55.42
2022-09-28T07:20:54.439Z,55.18
2022-09-28T07:23:21.244Z,55.22
2022-09-28T07:25:48.799Z,55.28
2022-09-28T07:28:16.083Z,55.23
2022-09-28T07:30:44.257Z,55.29
2022-09-28T07:33:12.551Z,55.17
2022-09-28T07:35:39.060Z,55.25
2022-09-28T07:38:06.517Z,55.36
2022-09-28T07:40:52.347Z,55.27
2022-09-28T07:43:21.780Z,55.23
2022-09-28T07:45:50.837Z,55.29
2022-09-28T07:48:18.621Z,55.19
2022-09-28T07:50:50.230Z,55.27
2022-09-28T07:53:16.708Z,55.30
2022-09-28T07:55:43.247Z,55.06
2022-09-28T07:58:09.739Z,55.04
2022-09-28T08:00:36.207Z,55.08
2022-09-28T08:03:02.940Z,55.74
2022-09-28T08:05:31.240Z,55.24
2022-09-28T08:07:59.592Z,55.81
2022-09-28T08:10:26.381Z,55.59
2022-09-28T08:12:59.223Z,55.67
2022-09-28T08:15:29.552Z,55.30
2022-09-28T08:17:57.995Z,55.34
2022-09-28T08:20:51.343Z,55.30
2022-09-28T08:23:18.345Z,55.38
2022-09-28T08:25:52.552Z,55.29
2022-09-28T08:28:19.040Z,55.29
2022-09-28T08:30:45.887Z,55.12
2022-09-28T08:33:17.573Z,55.34
2022-09-28T08:35:44.806Z,55.11
2022-09-28T08:38:11.364Z,54.68
2022-09-28T08:40:44.792Z,55.28
2022-09-28T08:43:41.873Z,55.35
2022-09-28T08:46:08.576Z,55.22
2022-09-28T08:49:06.646Z,55.19
2022-09-28T08:51:42.507Z,55.42
2022-09-28T08:54:25.934Z,55.35
2022-09-28T08:56:59.120Z,55.21
2022-09-28T08:59:29.730Z,55.39
2022-09-28T09:01:58.588Z,55.17
2022-09-28T09:04:25.249Z,55.30
2022-09-28T09:07:00.658Z,55.04
2022-09-28T09:09:55.157Z,55.15
2022-09-28T09:12:21.560Z,55.25
2022-09-28T09:15:00.205Z,55.31
2022-09-28T09:17:36.545Z,55.31
2022-09-28T09:20:19.426Z,55.24
2022-09-28T09:23:10.594Z,55.46
2022-09-28T09:26:26.139Z,55.16
2022-09-28T09:29:20.781Z,55.12
2022-09-28T09:31:53.396Z,55.16
2022-09-28T09:34:32.976Z,55.16
2022-09-28T09:37:30.561Z,55.24
2022-09-28T09:40:11.001Z,55.11
2022-09-28T09:42:40.435Z,55.16
2022-09-28T09:45:16.188Z,55.09
2022-09-28T09:47:50.756Z,55.21
2022-09-28T09:50:52.044Z,55.41
2022-09-28T09:53:38.387Z,55.24
2022-09-28T09:56:15.239Z,54.54
2022-09-28T09:58:46.167Z,53.57
2022-09-28T10:01:13.910Z,53.23
2022-09-28T10:03:42.637Z,52.86
2022-09-28T10:06:12.127Z,52.43
2022-09-28T10:08:44.395Z,52.32
2022-09-28T10:11:28.190Z,51.96
2022-09-28T10:13:55.266Z,51.88
2022-09-28T10:16:21.778Z,51.59
2022-09-28T10:18:49.679Z,51.16
2022-09-28T10:21:18.496Z,51.05
2022-09-28T10:23:45.103Z,50.94
2022-09-28T10:26:25.276Z,50.71
2022-09-28T10:28:59.161Z,50.73
2022-09-28T10:31:39.164Z,50.91
2022-09-28T10:34:06.902Z,51.22
2022-09-28T10:36:38.325Z,51.61
2022-09-28T10:39:06.025Z,51.88
2022-09-28T10:41:32.505Z,52.31
2022-09-28T10:44:08.827Z,52.36
2022-09-28T10:46:35.470Z,52.68
2022-09-28T10:49:12.451Z,53.06
2022-09-28T10:51:49.772Z,53.00
2022-09-28T10:54:20.960Z,53.10
2022-09-28T10:56:48.100Z,53.09
2022-09-28T10:59:29.528Z,52.96
2022-09-28T11:02:01.076Z,52.97
2022-09-28T11:04:29.040Z,52.93
2022-09-28T11:09:38.896Z,53.13
2022-09-28T11:12:06.090Z,53.25
2022-09-28T11:14:32.464Z,53.49
2022-09-28T11:17:20.280Z,53.24
2022-09-28T11:19:46.751Z,53.55
2022-09-28T11:22:25.067Z,53.38
2022-09-28T11:24:51.860Z,53.50
2022-09-28T11:27:27.600Z,53.61
2022-09-28T11:30:03.262Z,53.51
2022-09-28T11:32:31.759Z,53.70
2022-09-28T11:35:00.596Z,53.49
2022-09-28T11:37:40.580Z,53.44
2022-09-28T11:40:16.692Z,53.58
2022-09-28T11:43:21.004Z,53.61
2022-09-28T11:45:57.711Z,53.55
2022-09-28T11:48:27.056Z,53.54
2022-09-28T11:50:56.822Z,53.75
2022-09-28T11:54:01.851Z,53.62
2022-09-28T11:56:38.856Z,53.77
2022-09-28T11:59:14.657Z,53.96
2022-09-28T12:01:48.059Z,53.72
2022-09-28T12:04:25.193Z,53.71
2022-09-28T12:07:09.212Z,53.88
2022-09-28T12:09:53.375Z,53.71
2022-09-28T12:12:32.732Z,53.96
2022-09-28T12:15:05.335Z,53.94
2022-09-28T12:17:38.984Z,53.10
2022-09-28T12:20:20.704Z,52.62
2022-09-28T12:23:00.568Z,52.26
2022-09-28T12:25:28.251Z,52.45
2022-09-28T12:28:03.345Z,52.73
2022-09-28T12:30:33.250Z,52.89
2022-09-28T12:33:12.293Z,53.07
2022-09-28T12:35:47.930Z,53.00
2022-09-28T12:38:36.188Z,53.08
2022-09-28T12:41:42.386Z,52.99
2022-09-28T12:44:25.656Z,53.09
2022-09-28T12:46:55.234Z,53.56
2022-09-28T12:53:20.081Z,53.64
2022-09-28T12:56:04.636Z,53.62
2022-09-28T12:58:50.541Z,53.72
2022-09-28T13:01:32.340Z,53.77
2022-09-28T13:04:35.088Z,53.57
2022-09-28T13:07:19.969Z,54.06
2022-09-28T13:10:16.761Z,53.82
2022-09-28T13:12:53.316Z,53.93
2022-09-28T13:15:27.775Z,53.78
2022-09-28T13:18:02.155Z,53.92
2022-09-28T13:20:50.557Z,54.07
2022-09-28T13:23:24.033Z,53.93
2022-09-28T13:25:57.255Z,54.13
2022-09-28T13:28:27.253Z,54.02
2022-09-28T13:30:54.848Z,54.02
2022-09-28T13:33:47.632Z,54.14
2022-09-28T13:36:29.057Z,54.07
2022-09-28T13:38:59.475Z,54.02
2022-09-28T13:41:32.132Z,54.23
2022-09-28T13:44:08.161Z,53.91
2022-09-28T13:46:49.847Z,54.22
2022-09-28T13:49:24.413Z,54.13
2022-09-28T13:51:51.721Z,53.88
2022-09-28T13:54:27.385Z,54.14
2022-09-28T13:57:11.308Z,54.15
2022-09-28T14:00:15.904Z,54.22
2022-09-28T14:02:45.806Z,54.07
2022-09-28T14:05:21.621Z,54.09
2022-09-28T14:08:09.124Z,54.40
2022-09-28T14:10:51.942Z,53.99
2022-09-28T14:13:43.529Z,53.99
2022-09-28T14:16:20.567Z,54.38
2022-09-28T14:18:53.699Z,53.99
2022-09-28T14:21:40.216Z,54.22
2022-09-28T14:24:09.288Z,54.19
2022-09-28T14:26:41.794Z,54.23
2022-09-28T14:29:28.469Z,54.24
2022-09-28T14:31:56.760Z,54.23
2022-09-28T14:34:32.380Z,54.26
2022-09-28T14:37:37.260Z,53.49
2022-09-28T14:40:45.829Z,51.44
2022-09-28T14:43:47.336Z,51.28
2022-09-28T14:46:19.773Z,50.85
2022-09-28T14:48:50.233Z,50.28
2022-09-28T14:51:33.029Z,50.25
2022-09-28T14:54:10.467Z,50.02
2022-09-28T14:56:52.048Z,50.92
2022-09-28T14:59:19.215Z,51.22
2022-09-28T15:01:55.501Z,51.82
2022-09-28T15:04:23.205Z,52.06
2022-09-28T15:06:50.894Z,51.97
2022-09-28T15:09:33.703Z,52.40
2022-09-28T15:12:03.589Z,52.55
2022-09-28T15:14:33.451Z,52.46
2022-09-28T15:17:03.397Z,52.55
2022-09-28T15:19:41.263Z,52.84
2022-09-28T15:22:17.301Z,52.96
2022-09-28T15:25:02.841Z,52.96
2022-09-28T15:27:36.747Z,53.13
2022-09-28T15:30:27.987Z,52.96
2022-09-28T15:32:56.776Z,53.08
2022-09-28T15:35:26.938Z,53.17
2022-09-28T15:37:54.307Z,53.32
2022-09-28T15:40:37.754Z,53.28
2022-09-28T15:43:19.659Z,53.28
2022-09-28T15:45:46.159Z,53.43
2022-09-28T15:48:30.977Z,53.40
2022-09-28T15:51:10.867Z,53.51
2022-09-28T15:53:42.205Z,53.45
2022-09-28T15:56:10.271Z,52.91
2022-09-28T15:58:37.656Z,52.27
2022-09-28T16:01:27.705Z,51.82
2022-09-28T16:03:54.743Z,51.46
2022-09-28T16:06:21.355Z,51.04
2022-09-28T16:08:50.387Z,50.88
2022-09-28T16:11:31.823Z,50.47
2022-09-28T16:14:08.888Z,51.04
2022-09-28T16:16:40.253Z,50.80
2022-09-28T16:19:20.062Z,50.29
2022-09-28T16:21:47.030Z,49.75
2022-09-28T16:24:31.114Z,49.39
2022-09-28T16:27:01.532Z,48.98
2022-09-28T16:29:41.257Z,48.83
2022-09-28T16:32:26.142Z,48.83
2022-09-28T16:35:11.548Z,49.41
2022-09-28T16:37:40.825Z,49.83
2022-09-28T16:40:08.714Z,50.08
2022-09-28T16:42:35.448Z,50.22
2022-09-28T16:45:05.218Z,50.47
2022-09-28T16:47:34.331Z,50.76
2022-09-28T16:50:02.326Z,50.93
2022-09-28T16:52:47.220Z,51.25
2022-09-28T16:55:40.465Z,51.28
2022-09-28T16:58:04.680Z,51.39
2022-09-28T17:00:31.820Z,51.50
2022-09-28T17:02:58.528Z,51.60
2022-09-28T17:05:25.500Z,51.51
2022-09-28T17:07:59.559Z,51.82
2022-09-28T17:10:50.137Z,51.85
2022-09-28T17:13:31.460Z,51.78
2022-09-28T17:15:58.300Z,51.93
2022-09-28T17:18:24.926Z,52.17
2022-09-28T17:20:51.991Z,52.11
2022-09-28T17:25:49.902Z,52.36
2022-09-28T17:28:24.286Z,52.53
2022-09-28T17:30:50.811Z,52.48
2022-09-28T17:33:17.404Z,52.66
2022-09-28T17:35:43.956Z,52.55
2022-09-28T17:38:14.459Z,52.62
2022-09-28T17:40:41.711Z,52.71
2022-09-28T17:43:08.315Z,52.89
2022-09-28T17:45:39.402Z,52.72
2022-09-28T17:48:09.005Z,52.62
2022-09-28T17:50:35.783Z,52.82
2022-09-28T17:53:11.181Z,52.91
2022-09-28T17:55:38.117Z,52.91
2022-09-28T17:58:21.428Z,52.98
2022-09-28T18:00:48.910Z,52.99
2022-09-28T18:03:19.985Z,52.91
2022-09-28T18:05:48.269Z,53.23
2022-09-28T18:08:17.799Z,53.01
2022-09-28T18:10:46.282Z,53.11
2022-09-28T18:13:13.599Z,53.20
2022-09-28T18:15:40.121Z,52.98
2022-09-28T18:18:09.475Z,53.07
2022-09-28T18:20:36.540Z,53.24
2022-09-28T18:23:03.292Z,53.19
2022-09-28T18:25:30.039Z,53.03
2022-09-28T18:27:57.522Z,53.11
2022-09-28T18:30:24.714Z,53.39
2022-09-28T18:32:51.303Z,53.26
2022-09-28T18:35:22.626Z,53.28
2022-09-28T18:37:49.938Z,53.47
2022-09-28T18:40:16.494Z,53.56
2022-09-28T18:42:43.037Z,53.43
2022-09-28T18:45:13.164Z,53.58
2022-09-28T18:47:39.960Z,53.57
2022-09-28T18:50:07.037Z,53.51
2022-09-28T18:52:36.597Z,53.67
2022-09-28T18:55:04.073Z,53.70
2022-09-28T18:57:33.508Z,53.99
2022-09-28T19:00:00.847Z,53.88
2022-09-28T19:02:27.563Z,53.72
2022-09-28T19:04:54.147Z,53.71
2022-09-28T19:07:21.244Z,53.97
2022-09-28T19:09:47.722Z,53.79
2022-09-28T19:12:14.255Z,53.85
2022-09-28T19:14:40.787Z,53.87
2022-09-28T19:17:07.280Z,53.96
2022-09-28T19:19:33.822Z,53.98
2022-09-28T19:22:00.340Z,54.06
2022-09-28T19:24:26.953Z,53.93
2022-09-28T19:26:53.599Z,54.03
2022-09-28T19:29:20.401Z,54.01
2022-09-28T19:31:46.982Z,54.33
2022-09-28T19:34:14.406Z,54.01
2022-09-28T19:36:41.067Z,53.97
2022-09-28T19:39:07.833Z,53.69
2022-09-28T19:41:43.338Z,54.05
2022-09-28T19:44:27.231Z,53.94
2022-09-28T19:46:54.638Z,53.95
2022-09-28T19:49:22.260Z,53.97
2022-09-28T19:54:38.102Z,54.24
2022-09-28T19:57:08.677Z,54.06
2022-09-28T19:59:36.641Z,54.18
2022-09-28T20:02:03.935Z,54.15
2022-09-28T20:04:30.471Z,54.00
2022-09-28T20:06:56.951Z,54.27
2022-09-28T20:09:23.440Z,54.18
2022-09-28T20:11:51.793Z,54.25
2022-09-28T20:14:23.366Z,54.35
2022-09-28T20:16:52.286Z,54.30
2022-09-28T20:19:21.475Z,54.28
2022-09-28T20:21:48.351Z,54.45
2022-09-28T20:24:17.038Z,54.29
2022-09-28T20:26:44.341Z,54.20
2022-09-28T20:29:10.875Z,54.25
2022-09-28T20:31:37.459Z,54.55
2022-09-28T20:34:04.670Z,54.46
2022-09-28T20:36:33.903Z,54.49
2022-09-28T20:39:03.291Z,54.37
2022-09-28T20:41:36.771Z,54.40
2022-09-28T20:44:14.276Z,54.42
2022-09-28T20:46:40.940Z,54.54
2022-09-28T20:49:07.760Z,54.38
2022-09-28T20:51:34.422Z,54.46
2022-09-28T20:54:00.976Z,54.45
2022-09-28T20:56:29.050Z,54.64
2022-09-28T20:58:55.735Z,54.55
2022-09-28T21:01:23.933Z,54.46
2022-09-28T21:03:51.496Z,54.46
2022-09-28T21:06:18.782Z,54.71
2022-09-28T21:08:45.834Z,54.67
2022-09-28T21:11:13.183Z,54.56
2022-09-28T21:13:43.127Z,54.65
2022-09-28T21:16:10.899Z,54.61
2022-09-28T21:18:38.223Z,54.75
2022-09-28T21:21:15.319Z,54.75
2022-09-28T21:23:44.830Z,54.80
2022-09-28T21:26:24.339Z,54.59
2022-09-28T21:28:57.937Z,54.87
2022-09-28T21:31:28.806Z,54.82
2022-09-28T21:33:56.469Z,54.85
2022-09-28T21:36:22.995Z,54.65
2022-09-28T21:38:49.464Z,54.92
2022-09-28T21:41:16.325Z,54.89
2022-09-28T21:43:42.808Z,54.65
2022-09-28T21:46:09.778Z,54.87
2022-09-28T21:48:36.254Z,54.81
2022-09-28T21:51:07.139Z,54.80
2022-09-28T21:53:35.035Z,54.85
2022-09-28T21:56:01.888Z,54.88
2022-09-28T21:58:30.033Z,54.78
2022-09-28T22:01:03.117Z,54.87
2022-09-28T22:03:30.298Z,54.88
2022-09-28T22:05:56.773Z,54.83
2022-09-28T22:08:23.571Z,54.83
2022-09-28T22:11:03.280Z,55.01
2022-09-28T22:13:30.364Z,54.94
2022-09-28T22:15:58.684Z,55.06
2022-09-28T22:18:26.204Z,55.00
2022-09-28T22:21:06.495Z,54.89
2022-09-28T22:23:33.329Z,55.14
2022-09-28T22:26:05.290Z,55.03
2022-09-28T22:28:31.799Z,54.95
2022-09-28T22:30:58.391Z,55.03
2022-09-28T22:33:24.979Z,54.82
2022-09-28T22:35:51.509Z,55.06
2022-09-28T22:38:18.842Z,55.03
2022-09-28T22:40:54.623Z,55.08
2022-09-28T22:43:25.015Z,54.95
2022-09-28T22:46:01.909Z,55.12
2022-09-28T22:48:28.636Z,55.41
2022-09-28T22:50:55.134Z,55.04
2022-09-28T22:53:21.594Z,54.90
2022-09-28T22:55:48.123Z,55.06
2022-09-28T22:58:14.669Z,55.14
2022-09-28T23:00:41.211Z,55.24
2022-09-28T23:03:07.804Z,55.16
2022-09-28T23:05:34.291Z,55.16
2022-09-28T23:08:00.942Z,55.23
2022-09-28T23:10:27.447Z,55.08
2022-09-28T23:12:54.931Z,55.04
2022-09-28T23:15:22.338Z,55.13
2022-09-28T23:17:52.725Z,55.20
2022-09-28T23:20:22.156Z,55.22
2022-09-28T23:22:48.697Z,55.31
2022-09-28T23:25:16.206Z,55.09
2022-09-28T23:27:46.988Z,55.35
2022-09-28T23:30:14.639Z,55.15
2022-09-28T23:32:41.311Z,55.14
2022-09-28T23:35:07.910Z,55.37
2022-09-28T23:37:34.453Z,55.20
2022-09-28T23:40:02.772Z,55.14
2022-09-28T23:42:29.339Z,55.23
2022-09-28T23:44:55.870Z,55.24
2022-09-28T23:47:22.419Z,55.18
2022-09-28T23:49:48.890Z,55.30
2022-09-28T23:52:15.434Z,55.18
2022-09-28T23:54:42.095Z,55.27
2022-09-28T23:57:08.584Z,55.30
2022-09-28T23:59:35.055Z,55.09
